createdAt,value
2022-11-25T00:01:23.265Z,5.63
2022-11-25T00:03:54.541Z,6.13
2022-11-25T00:06:30.372Z,8.87
2022-11-25T00:09:01.927Z,7.20
2022-11-25T00:11:29.367Z,5.80
2022-11-25T00:13:57.472Z,8.60
2022-11-25T00:16:26.552Z,8.03
2022-11-25T00:18:55.722Z,7.57
2022-11-25T00:21:26.469Z,9.73
2022-11-25T00:23:58.610Z,5.43
2022-11-25T00:26:27.164Z,5.10
2022-11-25T00:28:54.742Z,5.80
2022-11-25T00:31:27.448Z,6.40
2022-11-25T00:33:54.961Z,5.73
2022-11-25T00:36:26.512Z,5.30
2022-11-25T00:38:55.749Z,5.50
2022-11-25T00:41:42.114Z,11.17
2022-11-25T00:44:32.694Z,5.63
2022-11-25T00:47:00.273Z,5.33
2022-11-25T00:49:29.772Z,6.77
2022-11-25T00:51:57.892Z,5.10
2022-11-25T00:54:25.100Z,5.87
2022-11-25T00:56:52.932Z,4.43
2022-11-25T00:59:19.757Z,6.33
2022-11-25T01:01:47.068Z,4.80
2022-11-25T01:04:13.848Z,6.67
2022-11-25T01:06:40.605Z,6.97
2022-11-25T01:09:09.223Z,5.60
2022-11-25T01:11:39.404Z,5.50
2022-11-25T01:14:07.040Z,5.23
2022-11-25T01:16:33.751Z,5.60
2022-11-25T01:19:02.114Z,7.17
2022-11-25T01:21:32.185Z,5.37
2022-11-25T01:24:01.136Z,6.97
2022-11-25T01:26:29.209Z,9.73
2022-11-25T01:29:01.198Z,8.57
2022-11-25T01:31:33.534Z,7.07
2022-11-25T01:34:12.853Z,15.07
2022-11-25T01:36:40.550Z,9.60
2022-11-25T01:39:08.306Z,6.63
2022-11-25T01:41:35.819Z,10.53
2022-11-25T01:44:05.841Z,7.47
2022-11-25T01:46:58.013Z,6.70
2022-11-25T01:49:43.305Z,6.47
2022-11-25T01:52:26.686Z,6.57
2022-11-25T01:54:59.847Z,7.47
2022-11-25T01:57:32.967Z,5.70
2022-11-25T02:00:02.767Z,9.63
2022-11-25T02:02:31.561Z,9.50
2022-11-25T02:05:01.431Z,18.43
2022-11-25T02:07:34.034Z,14.47
2022-11-25T02:10:02.933Z,5.60
2022-11-25T02:12:30.588Z,5.10
2022-11-25T02:14:59.063Z,5.27
2022-11-25T02:17:26.188Z,5.53
2022-11-25T02:20:01.520Z,6.10
2022-11-25T02:23:07.874Z,6.17
2022-11-25T02:25:37.825Z,8.00
2022-11-25T02:28:15.697Z,9.63
2022-11-25T02:30:43.701Z,6.20
2022-11-25T02:33:12.110Z,8.30
2022-11-25T02:35:49.116Z,7.37
2022-11-25T02:38:29.707Z,5.83
2022-11-25T02:41:17.774Z,6.93
2022-11-25T02:43:47.642Z,5.97
2022-11-25T02:46:21.870Z,7.63
2022-11-25T02:51:41.225Z,6.40
2022-11-25T02:54:09.872Z,7.63
2022-11-25T02:56:38.010Z,5.67
2022-11-25T02:59:04.796Z,5.73
2022-11-25T03:01:33.160Z,5.33
2022-11-25T03:04:00.221Z,6.63
2022-11-25T03:06:28.986Z,7.07
2022-11-25T03:08:56.314Z,5.73
2022-11-25T03:11:43.371Z,5.27
2022-11-25T03:14:10.413Z,5.80
2022-11-25T03:16:37.285Z,5.37
2022-11-25T03:19:05.455Z,4.63
2022-11-25T03:21:32.179Z,4.77
2022-11-25T03:23:58.914Z,5.83
2022-11-25T03:26:26.777Z,5.57
2022-11-25T03:28:53.522Z,6.03
2022-11-25T03:31:20.606Z,4.10
2022-11-25T03:33:47.418Z,6.10
2022-11-25T03:36:14.669Z,6.80
2022-11-25T03:38:41.826Z,6.53
2022-11-25T03:41:08.708Z,6.13
2022-11-25T03:43:36.536Z,6.27
2022-11-25T03:46:03.668Z,6.57
2022-11-25T03:48:30.715Z,6.70
2022-11-25T03:50:57.735Z,6.30
2022-11-25T03:53:25.899Z,6.30
2022-11-25T03:55:53.596Z,7.97
2022-11-25T03:58:22.714Z,7.17
2022-11-25T04:00:51.185Z,6.40
2022-11-25T04:03:18.357Z,6.17
2022-11-25T04:05:45.214Z,6.40
2022-11-25T04:08:13.842Z,5.87
2022-11-25T04:10:41.261Z,7.43
2022-11-25T04:13:10.224Z,5.03
2022-11-25T04:15:46.702Z,7.63
2022-11-25T04:18:15.034Z,5.70
2022-11-25T04:20:42.948Z,8.93
2022-11-25T04:23:12.066Z,5.70
2022-11-25T04:25:44.396Z,5.00
2022-11-25T04:28:23.891Z,7.10
2022-11-25T04:30:50.931Z,9.03
2022-11-25T04:33:17.897Z,6.47
2022-11-25T04:35:47.697Z,5.30
2022-11-25T04:38:14.515Z,4.97
2022-11-25T04:40:42.135Z,5.40
2022-11-25T04:43:20.896Z,5.80
2022-11-25T04:46:13.883Z,4.53
2022-11-25T04:48:43.884Z,4.40
2022-11-25T04:51:10.714Z,8.30
2022-11-25T04:53:40.309Z,7.87
2022-11-25T04:56:11.216Z,4.37
2022-11-25T04:59:01.472Z,4.70
2022-11-25T05:01:28.869Z,5.23
2022-11-25T05:04:04.154Z,6.70
2022-11-25T05:06:30.872Z,7.90
2022-11-25T05:08:57.832Z,3.93
2022-11-25T05:11:25.948Z,6.40
2022-11-25T05:13:53.827Z,5.17
2022-11-25T05:16:21.006Z,4.30
2022-11-25T05:18:47.989Z,4.30
2022-11-25T05:21:14.775Z,3.80
2022-11-25T05:23:43.086Z,4.33
2022-11-25T05:26:10.667Z,5.13
2022-11-25T05:28:43.892Z,4.10
2022-11-25T05:31:11.755Z,5.40
2022-11-25T05:33:39.624Z,4.90
2022-11-25T05:36:08.605Z,4.37
2022-11-25T05:38:45.189Z,6.67
2022-11-25T05:41:15.988Z,5.10
2022-11-25T05:43:44.675Z,4.13
2022-11-25T05:46:11.890Z,4.53
2022-11-25T05:48:44.887Z,5.87
2022-11-25T05:51:12.228Z,4.10
2022-11-25T05:53:40.116Z,4.93
2022-11-25T05:56:07.687Z,2.87
2022-11-25T05:59:01.865Z,3.10
2022-11-25T06:01:41.484Z,3.70
2022-11-25T06:04:08.621Z,4.77
2022-11-25T06:06:35.360Z,3.40
2022-11-25T06:09:02.070Z,5.90
2022-11-25T06:11:29.779Z,4.53
2022-11-25T06:13:58.267Z,4.10
2022-11-25T06:16:26.022Z,5.37
2022-11-25T06:19:06.724Z,3.53
2022-11-25T06:21:33.686Z,5.17
2022-11-25T06:24:01.066Z,4.00
2022-11-25T06:26:28.432Z,4.03
2022-11-25T06:28:56.669Z,3.33
2022-11-25T06:31:26.398Z,4.50
2022-11-25T06:34:02.847Z,3.93
2022-11-25T06:36:30.268Z,5.87
2022-11-25T06:38:57.088Z,4.53
2022-11-25T06:41:23.939Z,5.57
2022-11-25T06:43:50.960Z,6.43
2022-11-25T06:46:24.488Z,4.27
2022-11-25T06:48:53.294Z,5.20
2022-11-25T06:51:20.458Z,3.50
2022-11-25T06:53:47.832Z,3.10
2022-11-25T06:56:19.776Z,3.27
2022-11-25T06:58:47.800Z,3.30
2022-11-25T07:01:20.981Z,3.57
2022-11-25T07:03:49.822Z,4.03
2022-11-25T07:06:18.032Z,3.03
2022-11-25T07:08:45.691Z,2.93
2022-11-25T07:11:21.597Z,5.77
2022-11-25T07:13:51.488Z,3.60
2022-11-25T07:16:18.273Z,3.10
2022-11-25T07:18:45.559Z,4.00
2022-11-25T07:21:18.558Z,4.67
2022-11-25T07:23:46.722Z,2.63
2022-11-25T07:26:14.977Z,4.00
2022-11-25T07:28:42.724Z,4.93
2022-11-25T07:31:25.111Z,4.53
2022-11-25T07:33:58.979Z,6.33
2022-11-25T07:36:27.282Z,5.20
2022-11-25T07:38:54.522Z,4.10
2022-11-25T07:41:23.981Z,5.33
2022-11-25T07:43:54.629Z,6.37
2022-11-25T07:46:29.150Z,2.93
2022-11-25T07:48:59.349Z,3.83
2022-11-25T07:51:29.360Z,5.23
2022-11-25T07:53:58.129Z,4.30
2022-11-25T07:56:26.048Z,4.80
2022-11-25T07:58:53.674Z,3.77
2022-11-25T08:01:20.910Z,4.67
2022-11-25T08:03:49.751Z,5.33
2022-11-25T08:06:26.171Z,3.77
2022-11-25T08:08:56.329Z,4.23
2022-11-25T08:11:28.757Z,4.03
2022-11-25T08:13:57.275Z,6.53
2022-11-25T08:16:27.758Z,3.53
2022-11-25T08:18:56.366Z,5.00
2022-11-25T08:21:23.557Z,6.63
2022-11-25T08:23:52.612Z,3.93
2022-11-25T08:26:21.061Z,4.67
2022-11-25T08:28:48.143Z,5.57
2022-11-25T08:31:19.348Z,6.50
2022-11-25T08:33:46.768Z,3.17
2022-11-25T08:36:13.998Z,3.87
2022-11-25T08:38:42.998Z,3.83
2022-11-25T08:41:13.694Z,8.20
2022-11-25T08:43:41.613Z,8.13
2022-11-25T08:46:14.960Z,10.80
2022-11-25T08:48:43.103Z,17.27
2022-11-25T08:51:17.073Z,15.37
2022-11-25T08:53:44.171Z,16.53
2022-11-25T08:56:12.810Z,17.60
2022-11-25T08:58:39.684Z,17.10
2022-11-25T09:01:07.394Z,17.63
2022-11-25T09:03:37.855Z,17.63
2022-11-25T09:06:07.212Z,17.73
2022-11-25T09:08:34.884Z,15.40
2022-11-25T09:11:03.288Z,11.97
2022-11-25T09:13:30.454Z,10.47
2022-11-25T09:15:58.171Z,14.23
2022-11-25T09:18:27.158Z,14.47
2022-11-25T09:20:54.123Z,12.87
2022-11-25T09:23:23.396Z,10.60
2022-11-25T09:25:58.254Z,14.83
2022-11-25T09:28:26.923Z,16.87
2022-11-25T09:30:53.818Z,11.30
2022-11-25T09:33:21.306Z,14.13
2022-11-25T09:35:50.460Z,9.60
2022-11-25T09:38:17.209Z,13.00
2022-11-25T09:40:58.726Z,12.10
2022-11-25T09:43:47.655Z,9.53
2022-11-25T09:46:42.413Z,8.07
2022-11-25T09:49:15.729Z,11.73
2022-11-25T09:51:51.377Z,9.40
2022-11-25T09:54:34.490Z,6.70
2022-11-25T09:57:29.482Z,10.53
2022-11-25T09:59:56.189Z,7.00
2022-11-25T10:02:43.635Z,6.07
2022-11-25T10:05:25.753Z,8.17
2022-11-25T10:08:13.693Z,6.50
2022-11-25T10:10:48.360Z,6.30
2022-11-25T10:13:22.764Z,5.40
2022-11-25T10:15:50.861Z,4.27
2022-11-25T10:18:25.356Z,5.37
2022-11-25T10:20:54.086Z,6.33
2022-11-25T10:23:38.145Z,5.47
2022-11-25T10:26:14.953Z,4.27
2022-11-25T10:28:55.846Z,6.10
2022-11-25T10:31:31.015Z,4.00
2022-11-25T10:33:59.874Z,3.47
2022-11-25T10:36:33.353Z,1.70
2022-11-25T10:39:24.355Z,2.73
2022-11-25T10:41:59.897Z,2.10
2022-11-25T10:44:29.222Z,2.20
2022-11-25T10:47:16.138Z,3.37
2022-11-25T10:50:17.347Z,1.50
2022-11-25T10:52:55.358Z,1.23
2022-11-25T10:55:26.289Z,1.88
2022-11-25T10:57:54.245Z,2.88
2022-11-25T11:00:34.893Z,1.90
2022-11-25T11:03:23.274Z,2.20
2022-11-25T11:05:53.070Z,6.20
2022-11-25T11:08:23.654Z,2.28
2022-11-25T11:11:19.764Z,2.08
2022-11-25T11:13:48.590Z,1.55
2022-11-25T11:16:36.348Z,1.92
2022-11-25T11:19:04.302Z,1.10
2022-11-25T11:21:37.477Z,1.33
2022-11-25T11:24:35.661Z,1.85
2022-11-25T11:27:23.851Z,1.90
2022-11-25T11:30:20.427Z,1.45
2022-11-25T11:33:06.198Z,1.27
2022-11-25T11:35:47.674Z,1.35
2022-11-25T11:39:01.602Z,0.22
2022-11-25T11:41:45.577Z,0.80
2022-11-25T11:44:39.576Z,1.70
2022-11-25T11:47:06.352Z,1.17
2022-11-25T11:50:03.525Z,1.63
2022-11-25T11:52:33.163Z,0.53
2022-11-25T11:55:17.958Z,1.10
2022-11-25T11:57:51.298Z,1.07
2022-11-25T12:00:21.005Z,0.57
2022-11-25T12:03:13.207Z,1.03
2022-11-25T12:05:41.058Z,1.80
2022-11-25T12:08:14.702Z,0.33
2022-11-25T12:10:45.042Z,1.58
2022-11-25T12:13:22.606Z,0.93
2022-11-25T12:16:26.924Z,0.75
2022-11-25T12:19:22.530Z,1.80
2022-11-25T12:21:57.885Z,2.72
2022-11-25T12:25:03.165Z,0.60
2022-11-25T12:27:45.497Z,0.63
2022-11-25T12:30:16.374Z,2.83
2022-11-25T12:33:12.739Z,2.67
2022-11-25T12:35:51.656Z,2.23
2022-11-25T12:38:18.603Z,4.70
2022-11-25T12:41:07.766Z,1.33
2022-11-25T12:43:47.678Z,1.77
2022-11-25T12:46:35.966Z,1.03
2022-11-25T12:49:04.734Z,1.13
2022-11-25T12:51:56.468Z,2.73
2022-11-25T12:54:50.673Z,1.53
2022-11-25T12:57:56.214Z,0.93
2022-11-25T13:00:43.301Z,0.83
2022-11-25T13:03:48.660Z,0.70
2022-11-25T13:06:53.346Z,1.30
2022-11-25T13:09:50.758Z,1.77
2022-11-25T13:12:27.986Z,1.00
2022-11-25T13:15:18.061Z,2.90
2022-11-25T13:17:48.669Z,2.10
2022-11-25T13:20:27.784Z,0.73
2022-11-25T13:23:10.479Z,2.23
2022-11-25T13:25:39.686Z,4.37
2022-11-25T13:28:30.992Z,0.73
2022-11-25T13:31:17.051Z,0.73
2022-11-25T13:33:44.478Z,5.53
2022-11-25T13:36:20.196Z,3.73
2022-11-25T13:38:49.979Z,3.60
2022-11-25T13:41:17.107Z,2.53
2022-11-25T13:44:01.104Z,1.77
2022-11-25T13:46:46.292Z,3.00
2022-11-25T13:49:35.353Z,1.90
2022-11-25T13:52:11.562Z,1.87
2022-11-25T13:54:54.075Z,2.13
2022-11-25T13:57:25.450Z,1.60
2022-11-25T14:00:01.380Z,4.13
2022-11-25T14:02:28.314Z,2.87
2022-11-25T14:05:33.348Z,1.37
2022-11-25T14:08:20.452Z,0.93
2022-11-25T14:11:31.460Z,3.80
2022-11-25T14:14:26.056Z,1.07
2022-11-25T14:17:23.921Z,2.70
2022-11-25T14:20:19.089Z,3.13
2022-11-25T14:23:02.336Z,2.77
2022-11-25T14:25:42.277Z,1.47
2022-11-25T14:28:22.229Z,2.00
2022-11-25T14:30:54.475Z,3.20
2022-11-25T14:33:31.743Z,4.13
2022-11-25T14:36:27.941Z,1.67
2022-11-25T14:38:57.503Z,2.03
2022-11-25T14:41:30.754Z,1.70
2022-11-25T14:44:04.624Z,2.87
2022-11-25T14:46:32.352Z,3.60
2022-11-25T14:49:03.225Z,2.60
2022-11-25T14:51:37.945Z,1.43
2022-11-25T14:54:08.994Z,2.33
2022-11-25T14:56:37.164Z,2.90
2022-11-25T14:59:07.949Z,2.10
2022-11-25T15:01:37.559Z,3.73
2022-11-25T15:04:25.543Z,1.57
2022-11-25T15:06:57.873Z,3.17
2022-11-25T15:09:30.845Z,2.60
2022-11-25T15:12:01.837Z,3.90
2022-11-25T15:14:35.918Z,2.90
2022-11-25T15:17:28.365Z,2.43
2022-11-25T15:19:58.112Z,2.50
2022-11-25T15:22:25.492Z,3.67
2022-11-25T15:27:50.779Z,3.87
2022-11-25T15:30:32.424Z,1.97
2022-11-25T15:33:01.185Z,7.33
2022-11-25T15:35:29.358Z,7.73
2022-11-25T15:37:56.221Z,4.20
2022-11-25T15:40:36.954Z,5.63
2022-11-25T15:43:21.061Z,2.40
2022-11-25T15:45:52.581Z,4.10
2022-11-25T15:48:34.582Z,4.33
2022-11-25T15:51:21.515Z,7.00
2022-11-25T15:53:58.911Z,5.70
2022-11-25T15:56:27.105Z,6.07
2022-11-25T15:58:58.651Z,5.43
2022-11-25T16:01:29.111Z,7.30
2022-11-25T16:04:11.570Z,6.87
2022-11-25T16:06:54.285Z,3.97
2022-11-25T16:09:22.790Z,3.77
2022-11-25T16:11:49.979Z,7.27
2022-11-25T16:14:23.446Z,4.33
2022-11-25T16:16:50.796Z,3.80
2022-11-25T16:19:21.883Z,5.43
2022-11-25T16:21:56.201Z,7.87
2022-11-25T16:24:40.886Z,5.37
2022-11-25T16:27:16.864Z,6.20
2022-11-25T16:30:05.649Z,10.90
2022-11-25T16:32:34.796Z,34.53
2022-11-25T16:35:22.280Z,33.87
2022-11-25T16:37:50.091Z,29.90
2022-11-25T16:40:18.929Z,14.17
2022-11-25T16:42:50.249Z,8.67
2022-11-25T16:45:36.305Z,10.17
2022-11-25T16:48:14.676Z,7.97
2022-11-25T16:50:41.377Z,10.43
2022-11-25T16:53:08.587Z,5.80
2022-11-25T16:55:36.790Z,6.83
2022-11-25T16:58:18.950Z,6.10
2022-11-25T17:00:54.273Z,8.93
2022-11-25T17:03:24.145Z,5.47
2022-11-25T17:05:55.201Z,9.60
2022-11-25T17:08:22.392Z,10.47
2022-11-25T17:10:50.372Z,8.37
2022-11-25T17:13:25.869Z,10.13
2022-11-25T17:15:52.974Z,12.63
2022-11-25T17:18:20.401Z,7.77
2022-11-25T17:20:48.080Z,7.40
2022-11-25T17:23:17.277Z,9.37
2022-11-25T17:25:48.620Z,5.77
2022-11-25T17:28:20.979Z,4.63
2022-11-25T17:30:48.797Z,6.77
2022-11-25T17:33:19.674Z,6.87
2022-11-25T17:35:46.670Z,16.67
2022-11-25T17:38:18.158Z,7.20
2022-11-25T17:40:45.411Z,4.33
2022-11-25T17:43:18.449Z,7.73
2022-11-25T17:45:46.444Z,8.37
2022-11-25T17:48:16.383Z,12.00
2022-11-25T17:50:43.930Z,7.13
2022-11-25T17:53:10.664Z,4.80
2022-11-25T17:55:39.366Z,5.30
2022-11-25T17:58:08.451Z,10.07
2022-11-25T18:00:36.068Z,5.27
2022-11-25T18:03:03.818Z,7.33
2022-11-25T18:05:30.614Z,9.30
2022-11-25T18:07:57.511Z,4.00
2022-11-25T18:10:27.322Z,2.83
2022-11-25T18:12:56.456Z,6.30
2022-11-25T18:15:34.923Z,7.17
2022-11-25T18:18:14.000Z,7.00
2022-11-25T18:20:40.901Z,4.70
2022-11-25T18:23:09.663Z,5.20
2022-11-25T18:25:36.570Z,2.87
2022-11-25T18:28:10.894Z,1.50
2022-11-25T18:30:38.474Z,1.53
2022-11-25T18:33:12.398Z,3.50
2022-11-25T18:35:39.701Z,1.67
2022-11-25T18:38:07.426Z,0.83
2022-11-25T18:40:39.752Z,2.10
2022-11-25T18:43:12.002Z,1.80
2022-11-25T18:45:39.842Z,1.40
2022-11-25T18:48:19.570Z,3.13
2022-11-25T18:50:48.418Z,3.10
2022-11-25T18:53:15.131Z,3.43
2022-11-25T18:55:42.961Z,2.50
2022-11-25T18:58:34.350Z,1.20
2022-11-25T19:01:11.266Z,2.63
2022-11-25T19:03:38.432Z,1.87
2022-11-25T19:06:05.666Z,3.53
2022-11-25T19:08:33.496Z,4.50
2022-11-25T19:11:00.176Z,10.77
2022-11-25T19:13:33.741Z,9.27
2022-11-25T19:16:12.882Z,11.93
2022-11-25T19:18:40.066Z,6.50
2022-11-25T19:21:06.964Z,10.83
2022-11-25T19:23:36.053Z,8.37
2022-11-25T19:26:11.470Z,7.90
2022-11-25T19:28:38.294Z,7.10
2022-11-25T19:31:05.895Z,8.30
2022-11-25T19:33:38.756Z,5.90
2022-11-25T19:36:06.886Z,5.13
2022-11-25T19:38:34.906Z,6.40
2022-11-25T19:41:01.759Z,4.07
2022-11-25T19:43:28.527Z,3.87
2022-11-25T19:45:57.134Z,4.30
2022-11-25T19:48:27.167Z,2.23
2022-11-25T19:51:02.339Z,13.23
2022-11-25T19:53:33.834Z,6.50
2022-11-25T19:56:05.153Z,7.20
2022-11-25T19:58:32.173Z,2.70
2022-11-25T20:01:06.132Z,5.30
2022-11-25T20:03:34.349Z,4.93
2022-11-25T20:06:01.085Z,5.13
2022-11-25T20:08:29.003Z,6.13
2022-11-25T20:10:57.291Z,8.20
2022-11-25T20:13:26.468Z,6.20
2022-11-25T20:15:55.682Z,6.53
2022-11-25T20:18:24.229Z,8.47
2022-11-25T20:20:58.535Z,7.37
2022-11-25T20:23:41.679Z,5.27
2022-11-25T20:26:26.852Z,7.97
2022-11-25T20:28:53.770Z,12.57
2022-11-25T20:31:22.105Z,9.07
2022-11-25T20:33:49.522Z,7.30
2022-11-25T20:36:37.744Z,6.60
2022-11-25T20:39:06.099Z,8.77
2022-11-25T20:41:34.592Z,8.57
2022-11-25T20:44:01.524Z,10.00
2022-11-25T20:46:30.113Z,12.30
2022-11-25T20:49:02.438Z,7.33
2022-11-25T20:51:29.527Z,11.77
2022-11-25T20:53:58.392Z,4.57
2022-11-25T20:56:27.106Z,10.83
2022-11-25T20:58:54.664Z,4.77
2022-11-25T21:01:22.778Z,7.70
2022-11-25T21:03:52.990Z,7.03
2022-11-25T21:06:30.579Z,8.67
2022-11-25T21:09:01.084Z,10.03
2022-11-25T21:11:28.394Z,7.07
2022-11-25T21:13:55.379Z,12.50
2022-11-25T21:16:23.283Z,5.73
2022-11-25T21:18:52.175Z,8.03
2022-11-25T21:21:35.150Z,11.73
2022-11-25T21:24:12.332Z,9.63
2022-11-25T21:26:39.373Z,8.17
2022-11-25T21:29:06.998Z,6.43
2022-11-25T21:31:33.930Z,9.70
2022-11-25T21:34:02.768Z,10.07
2022-11-25T21:36:30.949Z,11.47
2022-11-25T21:39:05.203Z,8.73
2022-11-25T21:41:32.886Z,6.67
2022-11-25T21:44:00.045Z,5.83
2022-11-25T21:46:28.983Z,7.43
2022-11-25T21:48:56.298Z,7.97
2022-11-25T21:51:24.517Z,5.33
2022-11-25T21:53:55.281Z,10.10
2022-11-25T21:56:33.941Z,9.83
2022-11-25T21:59:02.710Z,7.97
2022-11-25T22:01:29.752Z,10.93
2022-11-25T22:03:56.916Z,12.80
2022-11-25T22:06:30.714Z,10.83
2022-11-25T22:08:58.186Z,8.27
2022-11-25T22:11:31.206Z,5.83
2022-11-25T22:14:00.664Z,11.57
2022-11-25T22:16:33.244Z,6.80
2022-11-25T22:19:00.355Z,9.43
2022-11-25T22:21:28.808Z,10.33
2022-11-25T22:23:55.593Z,8.03
2022-11-25T22:26:33.142Z,7.50
2022-11-25T22:29:02.037Z,11.93
2022-11-25T22:31:29.097Z,11.30
2022-11-25T22:33:56.181Z,9.30
2022-11-25T22:36:34.096Z,8.33
2022-11-25T22:39:15.361Z,8.93
2022-11-25T22:41:49.123Z,7.30
2022-11-25T22:44:21.887Z,7.27
2022-11-25T22:46:49.718Z,13.90
2022-11-25T22:49:28.974Z,8.23
2022-11-25T22:51:56.650Z,13.03
2022-11-25T22:54:24.014Z,7.20
2022-11-25T22:56:51.987Z,11.37
2022-11-25T22:59:18.902Z,9.07
2022-11-25T23:01:45.987Z,9.03
2022-11-25T23:04:18.731Z,10.70
2022-11-25T23:06:46.571Z,10.67
2022-11-25T23:09:15.858Z,11.53
2022-11-25T23:11:43.748Z,11.53
2022-11-25T23:14:10.665Z,9.77
2022-11-25T23:16:39.781Z,11.07
2022-11-25T23:19:16.644Z,10.37
2022-11-25T23:21:45.619Z,10.63
2022-11-25T23:24:15.177Z,9.57
2022-11-25T23:26:43.295Z,10.00
2022-11-25T23:29:10.345Z,7.97
2022-11-25T23:31:39.816Z,10.13
2022-11-25T23:34:08.440Z,12.50
2022-11-25T23:36:46.799Z,7.97
2022-11-25T23:39:22.528Z,11.27
2022-11-25T23:41:50.247Z,11.07
2022-11-25T23:44:30.782Z,6.87
2022-11-25T23:47:04.395Z,7.00
2022-11-25T23:49:37.624Z,10.43
2022-11-25T23:52:08.224Z,10.90
2022-11-25T23:54:40.785Z,10.30
2022-11-25T23:57:23.002Z,8.67
2022-11-25T23:59:51.425Z,25.80
